sensor_id;sensor_type;location;lat;lon;timestamp;pressure;altitude;pressure_sealevel;temperature;humidity
45789;BME280;31492;54.856;26.318;2023-04-28T00:01:37;1025.5;;;5.2;60.2
45789;BME280;31492;54.856;26.318;2023-04-28T00:06:15;1025.5;;;5.1;60.3
45789;BME280;31492;54.856;26.318;2023-04-28T00:11:23;1025.5;;;5.1;60.6
45789;BME280;31492;54.856;26.318;2023-04-28T00:16:31;1025.5;;;5;60.8
45789;BME280;31492;54.856;26.318;2023-04-28T00:21:19;1025.6;;;4.9;61.2
45789;BME280;31492;54.856;26.318;2023-04-28T00:26:23;1025.7;;;4.8;61.5
45789;BME280;31492;54.856;26.318;2023-04-28T00:31:09;1025.7;;;4.7;61.6
45789;BME280;31492;54.856;26.318;2023-04-28T00:36:49;1025.7;;;4.7;61.9
45789;BME280;31492;54.856;26.318;2023-04-28T00:41:09;1025.8;;;4.6;61.8
45789;BME280;31492;54.856;26.318;2023-04-28T00:46:09;1025.8;;;4.6;61.7
45789;BME280;31492;54.856;26.318;2023-04-28T00:51:25;1025.8;;;4.6;61.6
45789;BME280;31492;54.856;26.318;2023-04-28T00:56:09;1025.9;;;4.4;61.8
45789;BME280;31492;54.856;26.318;2023-04-28T01:01:09;1025.9;;;4.2;62
45789;BME280;31492;54.856;26.318;2023-04-28T01:06:19;1025.9;;;4.1;62.1
45789;BME280;31492;54.856;26.318;2023-04-28T01:11:09;1026;;;4;61.7
45789;BME280;31492;54.856;26.318;2023-04-28T01:16:15;1026;;;4;61.5
45789;BME280;31492;54.856;26.318;2023-04-28T01:21:24;1026;;;4;61.9
45789;BME280;31492;54.856;26.318;2023-04-28T01:26:09;1026.1;;;3.8;62.1
45789;BME280;31492;54.856;26.318;2023-04-28T01:31:15;1026.1;;;3.7;61.9
45789;BME280;31492;54.856;26.318;2023-04-28T01:36:09;1026.1;;;3.7;62
45789;BME280;31492;54.856;26.318;2023-04-28T01:41:29;1026.1;;;3.7;61.8
45789;BME280;31492;54.856;26.318;2023-04-28T01:46:19;1026.2;;;3.7;61.7
45789;BME280;31492;54.856;26.318;2023-04-28T01:51:23;1026.2;;;3.7;62
45789;BME280;31492;54.856;26.318;2023-04-28T01:56:21;1026.2;;;3.7;61.7
45789;BME280;31492;54.856;26.318;2023-04-28T02:01:09;1026.2;;;3.6;61.9
45789;BME280;31492;54.856;26.318;2023-04-28T02:06:19;1026.2;;;3.5;61.9
45789;BME280;31492;54.856;26.318;2023-04-28T02:11:17;1026.2;;;3.5;61.9
45789;BME280;31492;54.856;26.318;2023-04-28T02:16:33;1026.2;;;3.4;62.1
45789;BME280;31492;54.856;26.318;2023-04-28T02:21:47;1026.2;;;3.4;62.2
45789;BME280;31492;54.856;26.318;2023-04-28T02:26:09;1026.2;;;3.4;61.8
45789;BME280;31492;54.856;26.318;2023-04-28T02:31:19;1026.2;;;3.3;61.8
45789;BME280;31492;54.856;26.318;2023-04-28T02:36:09;1026.3;;;3.2;62.1
45789;BME280;31492;54.856;26.318;2023-04-28T02:41:35;1026.3;;;3.2;62.3
45789;BME280;31492;54.856;26.318;2023-04-28T02:46:09;1026.3;;;3.2;62.4
45789;BME280;31492;54.856;26.318;2023-04-28T02:51:37;1026.3;;;3.1;62
45789;BME280;31492;54.856;26.318;2023-04-28T02:56:09;1026.3;;;3;62.3
45789;BME280;31492;54.856;26.318;2023-04-28T03:01:23;1026.4;;;2.9;62.4
45789;BME280;31492;54.856;26.318;2023-04-28T03:06:35;1026.4;;;2.7;63.1
45789;BME280;31492;54.856;26.318;2023-04-28T03:11:29;1026.5;;;2.6;63.7
45789;BME280;31492;54.856;26.318;2023-04-28T03:16:23;1026.5;;;2.4;64.1
45789;BME280;31492;54.856;26.318;2023-04-28T03:21:21;1026.5;;;2.4;63.8
45789;BME280;31492;54.856;26.318;2023-04-28T03:26:31;1026.6;;;2.6;63.6
45789;BME280;31492;54.856;26.318;2023-04-28T03:31:09;1026.6;;;2.7;63.8
45789;BME280;31492;54.856;26.318;2023-04-28T03:36:15;1026.7;;;2.7;64
45789;BME280;31492;54.856;26.318;2023-04-28T03:41:19;1026.7;;;2.6;64.5
45789;BME280;31492;54.856;26.318;2023-04-28T03:46:09;1026.8;;;2.7;64.3
45789;BME280;31492;54.856;26.318;2023-04-28T03:51:09;1026.8;;;2.8;64.4
45789;BME280;31492;54.856;26.318;2023-04-28T03:56:41;1026.9;;;2.8;64.2
45789;BME280;31492;54.856;26.318;2023-04-28T04:01:19;1026.9;;;2.9;64.5
45789;BME280;31492;54.856;26.318;2023-04-28T04:06:21;1026.9;;;2.8;64.4
45789;BME280;31492;54.856;26.318;2023-04-28T04:11:27;1027;;;2.9;64.6
45789;BME280;31492;54.856;26.318;2023-04-28T04:16:31;1027;;;3;64.9
45789;BME280;31492;54.856;26.318;2023-04-28T04:21:29;1027;;;3;65
45789;BME280;31492;54.856;26.318;2023-04-28T04:26:31;1027;;;3.1;65.3
45789;BME280;31492;54.856;26.318;2023-04-28T04:31:09;1027;;;3.2;65.3
45789;BME280;31492;54.856;26.318;2023-04-28T04:36:15;1027.1;;;3.3;65.5
45789;BME280;31492;54.856;26.318;2023-04-28T04:41:09;1027.1;;;3.4;65.6
45789;BME280;31492;54.856;26.318;2023-04-28T04:46:09;1027.1;;;3.6;64.9
45789;BME280;31492;54.856;26.318;2023-04-28T04:51:21;1027.1;;;3.8;64.7
45789;BME280;31492;54.856;26.318;2023-04-28T04:56:23;1027.1;;;3.9;64.7
45789;BME280;31492;54.856;26.318;2023-04-28T05:01:35;1027.1;;;4;64.6
45789;BME280;31492;54.856;26.318;2023-04-28T05:06:15;1027.2;;;4.1;64.5
45789;BME280;31492;54.856;26.318;2023-04-28T05:11:23;1027.2;;;4.4;64.4
45789;BME280;31492;54.856;26.318;2023-04-28T05:16:09;1027.2;;;4.6;63.9
45789;BME280;31492;54.856;26.318;2023-04-28T05:21:19;1027.2;;;4.7;63.5
45789;BME280;31492;54.856;26.318;2023-04-28T05:26:09;1027.2;;;4.9;63.2
45789;BME280;31492;54.856;26.318;2023-04-28T05:31:29;1027.2;;;5.1;62.9
45789;BME280;31492;54.856;26.318;2023-04-28T05:36:19;1027.2;;;5.3;62.2
45789;BME280;31492;54.856;26.318;2023-04-28T05:41:21;1027.3;;;5.4;62.4
45789;BME280;31492;54.856;26.318;2023-04-28T05:46:09;1027.2;;;5.6;61.8
45789;BME280;31492;54.856;26.318;2023-04-28T05:51:31;1027.2;;;5.8;61.3
45789;BME280;31492;54.856;26.318;2023-04-28T05:56:21;1027.2;;;6;61
45789;BME280;31492;54.856;26.318;2023-04-28T06:01:15;1027.2;;;6.3;60.1
45789;BME280;31492;54.856;26.318;2023-04-28T06:06:10;1027.2;;;6.4;60
45789;BME280;31492;54.856;26.318;2023-04-28T06:11:09;1027.2;;;6.6;59.6
45789;BME280;31492;54.856;26.318;2023-04-28T06:16:09;1027.2;;;6.9;59.2
45789;BME280;31492;54.856;26.318;2023-04-28T06:21:09;1027.2;;;7.3;58.6
45789;BME280;31492;54.856;26.318;2023-04-28T06:26:54;1027.2;;;7.9;57.9
45789;BME280;31492;54.856;26.318;2023-04-28T06:31:19;1027.2;;;8.4;57.6
45789;BME280;31492;54.856;26.318;2023-04-28T06:36:37;1027.3;;;8.7;55.5
45789;BME280;31492;54.856;26.318;2023-04-28T06:41:27;1027.3;;;9.1;55
45789;BME280;31492;54.856;26.318;2023-04-28T06:46:17;1027.2;;;9.6;53.9
45789;BME280;31492;54.856;26.318;2023-04-28T06:51:23;1027.2;;;10.1;51.6
45789;BME280;31492;54.856;26.318;2023-04-28T06:56:15;1027.1;;;10.8;51.4
45789;BME280;31492;54.856;26.318;2023-04-28T07:01:09;1027.2;;;11.1;49.4
45789;BME280;31492;54.856;26.318;2023-04-28T07:06:31;1027.1;;;11.4;47.3
45789;BME280;31492;54.856;26.318;2023-04-28T07:11:15;1027.1;;;11.8;46.3
45789;BME280;31492;54.856;26.318;2023-04-28T07:16:10;1027.1;;;12.3;44.7
45789;BME280;31492;54.856;26.318;2023-04-28T07:21:23;1027.1;;;12.8;42.8
45789;BME280;31492;54.856;26.318;2023-04-28T07:26:09;1027.1;;;13.4;42.4
45789;BME280;31492;54.856;26.318;2023-04-28T07:31:09;1027;;;14.2;41.2
45789;BME280;31492;54.856;26.318;2023-04-28T07:36:09;1027;;;14.4;41.9
45789;BME280;31492;54.856;26.318;2023-04-28T07:41:09;1027;;;14.3;40.9
45789;BME280;31492;54.856;26.318;2023-04-28T07:46:23;1027;;;14.3;40.7
45789;BME280;31492;54.856;26.318;2023-04-28T07:51:49;1027;;;14.2;40.4
45789;BME280;31492;54.856;26.318;2023-04-28T07:56:15;1027;;;14.3;40
45789;BME280;31492;54.856;26.318;2023-04-28T08:01:31;1027;;;13.8;41.2
45789;BME280;31492;54.856;26.318;2023-04-28T08:06:09;1027.1;;;13.4;41.3
45789;BME280;31492;54.856;26.318;2023-04-28T08:11:17;1027;;;13;41.2
45789;BME280;31492;54.856;26.318;2023-04-28T08:16:23;1027;;;12.6;42.2
45789;BME280;31492;54.856;26.318;2023-04-28T08:21:31;1026.9;;;12.6;41.9
45789;BME280;31492;54.856;26.318;2023-04-28T08:26:21;1026.9;;;13;41.5
45789;BME280;31492;54.856;26.318;2023-04-28T08:31:29;1026.9;;;13.2;40.3
45789;BME280;31492;54.856;26.318;2023-04-28T08:36:25;1026.9;;;13;40.4
45789;BME280;31492;54.856;26.318;2023-04-28T08:41:09;1026.9;;;13.9;39.4
45789;BME280;31492;54.856;26.318;2023-04-28T08:46:10;1026.8;;;14.7;37
45789;BME280;31492;54.856;26.318;2023-04-28T08:51:22;1026.8;;;14.5;37.6
45789;BME280;31492;54.856;26.318;2023-04-28T08:56:17;1026.8;;;14.1;37.3
45789;BME280;31492;54.856;26.318;2023-04-28T09:01:23;1026.8;;;13.5;38.2
45789;BME280;31492;54.856;26.318;2023-04-28T09:06:30;1026.8;;;13;38.2
45789;BME280;31492;54.856;26.318;2023-04-28T09:11:10;1026.8;;;12.6;39.1
45789;BME280;31492;54.856;26.318;2023-04-28T09:16:17;1026.8;;;12.4;40
45789;BME280;31492;54.856;26.318;2023-04-28T09:21:09;1026.9;;;12.5;40.2
45789;BME280;31492;54.856;26.318;2023-04-28T09:26:23;1026.8;;;12.4;40.2
45789;BME280;31492;54.856;26.318;2023-04-28T09:31:39;1026.8;;;12.8;40.5
45789;BME280;31492;54.856;26.318;2023-04-28T09:36:09;1026.7;;;13.6;39.7
45789;BME280;31492;54.856;26.318;2023-04-28T09:41:29;1026.7;;;13.6;39.5
45789;BME280;31492;54.856;26.318;2023-04-28T09:46:09;1026.6;;;13.7;38.9
45789;BME280;31492;54.856;26.318;2023-04-28T09:51:09;1026.6;;;13.8;38.6
45789;BME280;31492;54.856;26.318;2023-04-28T09:56:23;1026.6;;;13.8;38.6
45789;BME280;31492;54.856;26.318;2023-04-28T10:01:09;1026.6;;;13.9;38.2
45789;BME280;31492;54.856;26.318;2023-04-28T10:06:09;1026.5;;;13.8;37.3
45789;BME280;31492;54.856;26.318;2023-04-28T10:11:41;1026.5;;;13.6;38.3
45789;BME280;31492;54.856;26.318;2023-04-28T10:16:21;1026.4;;;13.6;37.7
45789;BME280;31492;54.856;26.318;2023-04-28T10:21:09;1026.4;;;14;38.1
45789;BME280;31492;54.856;26.318;2023-04-28T10:26:10;1026.4;;;14.8;36.2
45789;BME280;31492;54.856;26.318;2023-04-28T10:31:10;1026.2;;;15.5;35.6
45789;BME280;31492;54.856;26.318;2023-04-28T10:36:09;1026.2;;;15.9;34.3
45789;BME280;31492;54.856;26.318;2023-04-28T10:41:30;1026.2;;;16;34.3
45789;BME280;31492;54.856;26.318;2023-04-28T10:46:09;1026.2;;;15.9;33.2
45789;BME280;31492;54.856;26.318;2023-04-28T10:51:45;1026.3;;;15.2;32.7
45789;BME280;31492;54.856;26.318;2023-04-28T10:56:22;1026.3;;;14.6;34.6
45789;BME280;31492;54.856;26.318;2023-04-28T11:01:23;1026.3;;;14.4;35.5
45789;BME280;31492;54.856;26.318;2023-04-28T11:06:34;1026.3;;;14.4;36.1
45789;BME280;31492;54.856;26.318;2023-04-28T11:11:22;1026.3;;;15.2;35.3
45789;BME280;31492;54.856;26.318;2023-04-28T11:16:09;1026.2;;;15.9;35.1
45789;BME280;31492;54.856;26.318;2023-04-28T11:21:27;1026.1;;;16.2;32
45789;BME280;31492;54.856;26.318;2023-04-28T11:26:09;1026.1;;;16.1;32.1
45789;BME280;31492;54.856;26.318;2023-04-28T11:31:10;1026;;;16.3;32.7
45789;BME280;31492;54.856;26.318;2023-04-28T11:36:24;1026;;;16.4;32.2
45789;BME280;31492;54.856;26.318;2023-04-28T11:41:13;1026;;;16.1;32.2
45789;BME280;31492;54.856;26.318;2023-04-28T11:46:09;1026.1;;;16.1;32.8
45789;BME280;31492;54.856;26.318;2023-04-28T11:51:09;1026.1;;;16.1;34.2
45789;BME280;31492;54.856;26.318;2023-04-28T11:56:09;1026.1;;;16.8;34.6
45789;BME280;31492;54.856;26.318;2023-04-28T12:01:23;1026.2;;;16.4;35.1
45789;BME280;31492;54.856;26.318;2023-04-28T12:06:21;1026.1;;;15.9;35.7
45789;BME280;31492;54.856;26.318;2023-04-28T12:11:15;1026.1;;;15.8;36.3
45789;BME280;31492;54.856;26.318;2023-04-28T12:16:35;1026.1;;;15.4;36.5
45789;BME280;31492;54.856;26.318;2023-04-28T12:21:29;1026.1;;;15;37.1
45789;BME280;31492;54.856;26.318;2023-04-28T12:26:10;1026.1;;;14.6;37.8
45789;BME280;31492;54.856;26.318;2023-04-28T12:31:21;1026;;;14.3;39.1
45789;BME280;31492;54.856;26.318;2023-04-28T12:36:29;1026;;;14.3;39.6
45789;BME280;31492;54.856;26.318;2023-04-28T12:41:55;1025.9;;;14.4;39.8
45789;BME280;31492;54.856;26.318;2023-04-28T12:46:09;1025.8;;;15.1;38.2
45789;BME280;31492;54.856;26.318;2023-04-28T12:51:09;1025.7;;;15.5;37
45789;BME280;31492;54.856;26.318;2023-04-28T12:56:09;1025.6;;;16.1;35.9
45789;BME280;31492;54.856;26.318;2023-04-28T13:01:17;1025.6;;;16.5;33.6
45789;BME280;31492;54.856;26.318;2023-04-28T13:06:21;1025.7;;;16.4;32.8
45789;BME280;31492;54.856;26.318;2023-04-28T13:11:09;1025.7;;;16.1;32.4
45789;BME280;31492;54.856;26.318;2023-04-28T13:16:31;1025.7;;;15.6;33.1
45789;BME280;31492;54.856;26.318;2023-04-28T13:21:40;1025.7;;;15.3;33.8
45789;BME280;31492;54.856;26.318;2023-04-28T13:26:09;1025.6;;;15.4;33.5
45789;BME280;31492;54.856;26.318;2023-04-28T13:31:09;1025.5;;;15.8;32.1
45789;BME280;31492;54.856;26.318;2023-04-28T13:36:10;1025.5;;;16.1;32.6
45789;BME280;31492;54.856;26.318;2023-04-28T13:41:20;1025.5;;;16.1;31.7
45789;BME280;31492;54.856;26.318;2023-04-28T13:46:29;1025.6;;;15.6;32.3
45789;BME280;31492;54.856;26.318;2023-04-28T13:51:10;1025.6;;;15.3;32
45789;BME280;31492;54.856;26.318;2023-04-28T13:56:21;1025.6;;;15.1;32.6
45789;BME280;31492;54.856;26.318;2023-04-28T14:01:24;1025.6;;;15;33.3
45789;BME280;31492;54.856;26.318;2023-04-28T14:06:16;1025.6;;;14.8;32.5
45789;BME280;31492;54.856;26.318;2023-04-28T14:11:09;1025.7;;;14.6;33.4
45789;BME280;31492;54.856;26.318;2023-04-28T14:16:10;1025.7;;;14.4;33.2
45789;BME280;31492;54.856;26.318;2023-04-28T14:21:09;1025.7;;;14;32.6
45789;BME280;31492;54.856;26.318;2023-04-28T14:26:24;1025.6;;;13.8;32.8
45789;BME280;31492;54.856;26.318;2023-04-28T14:31:09;1025.6;;;13.7;33
45789;BME280;31492;54.856;26.318;2023-04-28T14:36:09;1025.6;;;13.9;33.4
45789;BME280;31492;54.856;26.318;2023-04-28T14:41:29;1025.7;;;13.9;34.5
45789;BME280;31492;54.856;26.318;2023-04-28T14:46:10;1025.9;;;13.7;35.2
45789;BME280;31492;54.856;26.318;2023-04-28T14:51:33;1026;;;13.6;36.3
45789;BME280;31492;54.856;26.318;2023-04-28T14:56:24;1026.1;;;13.4;37.1
45789;BME280;31492;54.856;26.318;2023-04-28T15:01:16;1026.1;;;13.1;37.5
45789;BME280;31492;54.856;26.318;2023-04-28T15:06:10;1026;;;12.9;38.1
45789;BME280;31492;54.856;26.318;2023-04-28T15:11:36;1026.1;;;12.8;39.1
45789;BME280;31492;54.856;26.318;2023-04-28T15:16:16;1026.1;;;12.7;40.1
45789;BME280;31492;54.856;26.318;2023-04-28T15:21:10;1026;;;12.7;40.4
45789;BME280;31492;54.856;26.318;2023-04-28T15:26:20;1026;;;12.8;40.3
45789;BME280;31492;54.856;26.318;2023-04-28T15:31:24;1026;;;12.9;40.1
45789;BME280;31492;54.856;26.318;2023-04-28T15:36:10;1026;;;12.9;38.9
45789;BME280;31492;54.856;26.318;2023-04-28T15:41:42;1026;;;12.8;38.9
45789;BME280;31492;54.856;26.318;2023-04-28T15:46:10;1026;;;12.7;39.2
45789;BME280;31492;54.856;26.318;2023-04-28T15:51:10;1026;;;12.6;39.3
45789;BME280;31492;54.856;26.318;2023-04-28T15:56:16;1026;;;12.4;40
45789;BME280;31492;54.856;26.318;2023-04-28T16:01:22;1025.9;;;12.3;39.9
45789;BME280;31492;54.856;26.318;2023-04-28T16:06:24;1026;;;12.3;40.2
45789;BME280;31492;54.856;26.318;2023-04-28T16:11:10;1026;;;12.3;40.4
45789;BME280;31492;54.856;26.318;2023-04-28T16:16:10;1026;;;12.2;40.4
45789;BME280;31492;54.856;26.318;2023-04-28T16:21:36;1026;;;12.1;40.8
45789;BME280;31492;54.856;26.318;2023-04-28T16:26:10;1025.9;;;12;40.8
45789;BME280;31492;54.856;26.318;2023-04-28T16:31:22;1026;;;11.8;41.4
45789;BME280;31492;54.856;26.318;2023-04-28T16:36:24;1025.9;;;11.7;42.1
45789;BME280;31492;54.856;26.318;2023-04-28T16:41:10;1025.9;;;11.6;42.3
45789;BME280;31492;54.856;26.318;2023-04-28T16:46:22;1025.9;;;11.4;42.1
45789;BME280;31492;54.856;26.318;2023-04-28T16:51:10;1025.9;;;11.3;42.8
45789;BME280;31492;54.856;26.318;2023-04-28T16:56:10;1026;;;11.1;43.2
45789;BME280;31492;54.856;26.318;2023-04-28T17:01:36;1026.1;;;11;43.3
45789;BME280;31492;54.856;26.318;2023-04-28T17:06:50;1026.1;;;10.9;43.9
45789;BME280;31492;54.856;26.318;2023-04-28T17:11:22;1026.1;;;10.7;43.5
45789;BME280;31492;54.856;26.318;2023-04-28T17:16:36;1026.1;;;10.6;43.6
45789;BME280;31492;54.856;26.318;2023-04-28T17:21:10;1026.2;;;10.4;44.1
45789;BME280;31492;54.856;26.318;2023-04-28T17:26:16;1026.2;;;10.3;44.6
45789;BME280;31492;54.856;26.318;2023-04-28T17:31:10;1026.4;;;10.2;45.1
45789;BME280;31492;54.856;26.318;2023-04-28T17:36:10;1026.5;;;10.1;46.8
45789;BME280;31492;54.856;26.318;2023-04-28T17:41:26;1026.6;;;10;47.6
45789;BME280;31492;54.856;26.318;2023-04-28T17:46:50;1026.7;;;9.9;48.2
45789;BME280;31492;54.856;26.318;2023-04-28T17:51:10;1026.5;;;9.8;48
45789;BME280;31492;54.856;26.318;2023-04-28T17:56:34;1026.2;;;9.6;49.6
45789;BME280;31492;54.856;26.318;2023-04-28T18:01:10;1026.3;;;9.5;50.3
45789;BME280;31492;54.856;26.318;2023-04-28T18:06:16;1026.4;;;9.3;50.5
45789;BME280;31492;54.856;26.318;2023-04-28T18:11:10;1026.4;;;9.2;50.2
45789;BME280;31492;54.856;26.318;2023-04-28T18:16:22;1026.5;;;9.2;50.2
45789;BME280;31492;54.856;26.318;2023-04-28T18:21:26;1026.5;;;9.1;50.2
45789;BME280;31492;54.856;26.318;2023-04-28T18:26:20;1026.5;;;9.1;50.4
45789;BME280;31492;54.856;26.318;2023-04-28T18:31:20;1026.5;;;8.9;50.9
45789;BME280;31492;54.856;26.318;2023-04-28T18:36:10;1026.5;;;8.8;51.4
45789;BME280;31492;54.856;26.318;2023-04-28T18:41:30;1026.5;;;8.5;52.4
45789;BME280;31492;54.856;26.318;2023-04-28T18:46:22;1026.5;;;8.3;52.9
45789;BME280;31492;54.856;26.318;2023-04-28T18:51:16;1026.5;;;8;53.2
45789;BME280;31492;54.856;26.318;2023-04-28T18:56:10;1026.5;;;7.9;53.4
45789;BME280;31492;54.856;26.318;2023-04-28T19:01:22;1026.5;;;7.7;54.2
45789;BME280;31492;54.856;26.318;2023-04-28T19:06:20;1026.5;;;7.5;54.9
45789;BME280;31492;54.856;26.318;2023-04-28T19:11:10;1026.5;;;7.3;55.2
45789;BME280;31492;54.856;26.318;2023-04-28T19:16:10;1026.5;;;7.2;55.3
45789;BME280;31492;54.856;26.318;2023-04-28T19:21:10;1026.5;;;7.1;56.1
45789;BME280;31492;54.856;26.318;2023-04-28T19:26:34;1026.5;;;6.9;56.1
45789;BME280;31492;54.856;26.318;2023-04-28T19:31:10;1026.5;;;6.8;56.2
45789;BME280;31492;54.856;26.318;2023-04-28T19:36:10;1026.5;;;6.7;56.7
45789;BME280;31492;54.856;26.318;2023-04-28T19:41:24;1026.4;;;6.5;57.5
45789;BME280;31492;54.856;26.318;2023-04-28T19:46:10;1026.4;;;6.3;58
45789;BME280;31492;54.856;26.318;2023-04-28T19:51:24;1026.5;;;6.3;58.4
45789;BME280;31492;54.856;26.318;2023-04-28T19:56:10;1026.5;;;6.4;58.4
45789;BME280;31492;54.856;26.318;2023-04-28T20:01:16;1026.4;;;6.3;58.5
45789;BME280;31492;54.856;26.318;2023-04-28T20:06:34;1026.4;;;6.3;57.8
45789;BME280;31492;54.856;26.318;2023-04-28T20:11:24;1026.4;;;6.1;58
45789;BME280;31492;54.856;26.318;2023-04-28T20:16:10;1026.4;;;6;57.9
45789;BME280;31492;54.856;26.318;2023-04-28T20:21:10;1026.4;;;5.8;58.5
45789;BME280;31492;54.856;26.318;2023-04-28T20:26:36;1026.4;;;5.7;58.7
45789;BME280;31492;54.856;26.318;2023-04-28T20:31:16;1026.4;;;5.5;58.3
45789;BME280;31492;54.856;26.318;2023-04-28T20:36:11;1026.4;;;5.6;58.7
45789;BME280;31492;54.856;26.318;2023-04-28T20:41:10;1026.4;;;5.4;59.7
45789;BME280;31492;54.856;26.318;2023-04-28T20:46:22;1026.4;;;5.3;60.1
45789;BME280;31492;54.856;26.318;2023-04-28T20:51:10;1026.4;;;5.2;60.1
45789;BME280;31492;54.856;26.318;2023-04-28T20:56:16;1026.5;;;5;60.6
45789;BME280;31492;54.856;26.318;2023-04-28T21:01:20;1026.5;;;4.9;60.7
45789;BME280;31492;54.856;26.318;2023-04-28T21:06:44;1026.4;;;5;60.3
45789;BME280;31492;54.856;26.318;2023-04-28T21:11:16;1026.5;;;5;60.1
45789;BME280;31492;54.856;26.318;2023-04-28T21:16:16;1026.5;;;5;60
45789;BME280;31492;54.856;26.318;2023-04-28T21:21:24;1026.5;;;5;59.8
45789;BME280;31492;54.856;26.318;2023-04-28T21:26:18;1026.5;;;5.1;59.5
45789;BME280;31492;54.856;26.318;2023-04-28T21:31:20;1026.5;;;5.1;59.5
45789;BME280;31492;54.856;26.318;2023-04-28T21:36:36;1026.5;;;4.9;59.3
45789;BME280;31492;54.856;26.318;2023-04-28T21:41:30;1026.5;;;4.7;60.4
45789;BME280;31492;54.856;26.318;2023-04-28T21:46:32;1026.5;;;4.6;60.7
45789;BME280;31492;54.856;26.318;2023-04-28T21:51:10;1026.5;;;4.6;60.2
45789;BME280;31492;54.856;26.318;2023-04-28T21:56:10;1026.5;;;4.7;60.1
45789;BME280;31492;54.856;26.318;2023-04-28T22:01:44;1026.5;;;4.5;60.6
45789;BME280;31492;54.856;26.318;2023-04-28T22:06:10;1026.5;;;4.2;61.1
45789;BME280;31492;54.856;26.318;2023-04-28T22:11:10;1026.4;;;4.2;61.4
45789;BME280;31492;54.856;26.318;2023-04-28T22:16:24;1026.4;;;4.2;60.8
45789;BME280;31492;54.856;26.318;2023-04-28T22:21:24;1026.4;;;4.2;60.8
45789;BME280;31492;54.856;26.318;2023-04-28T22:26:26;1026.4;;;4.2;60.9
45789;BME280;31492;54.856;26.318;2023-04-28T22:31:20;1026.4;;;4;61.1
45789;BME280;31492;54.856;26.318;2023-04-28T22:36:30;1026.4;;;3.9;61
45789;BME280;31492;54.856;26.318;2023-04-28T22:41:20;1026.4;;;3.8;61.4
45789;BME280;31492;54.856;26.318;2023-04-28T22:46:32;1026.4;;;3.6;61.6
45789;BME280;31492;54.856;26.318;2023-04-28T22:51:10;1026.3;;;3.3;62.3
45789;BME280;31492;54.856;26.318;2023-04-28T22:56:20;1026.3;;;3.3;62.4
45789;BME280;31492;54.856;26.318;2023-04-28T23:01:10;1026.3;;;3.3;61.8
45789;BME280;31492;54.856;26.318;2023-04-28T23:06:44;1026.3;;;3.4;62.1
45789;BME280;31492;54.856;26.318;2023-04-28T23:11:34;1026.3;;;3.3;62.1
45789;BME280;31492;54.856;26.318;2023-04-28T23:16:48;1026.3;;;3.2;62.2
45789;BME280;31492;54.856;26.318;2023-04-28T23:21:22;1026.3;;;3.3;61.8
45789;BME280;31492;54.856;26.318;2023-04-28T23:26:34;1026.3;;;3.4;61.6
45789;BME280;31492;54.856;26.318;2023-04-28T23:31:22;1026.3;;;3.5;61.5
45789;BME280;31492;54.856;26.318;2023-04-28T23:36:30;1026.3;;;3.4;61.5
45789;BME280;31492;54.856;26.318;2023-04-28T23:41:30;1026.2;;;3.3;61.5
45789;BME280;31492;54.856;26.318;2023-04-28T23:46:10;1026.2;;;3.3;61.8
45789;BME280;31492;54.856;26.318;2023-04-28T23:51:26;1026.2;;;3.1;62
45789;BME280;31492;54.856;26.318;2023-04-28T23:56:10;1026.2;;;3.2;61.8
